Nearby METAR Reports

 

KISM - Kissimmee/Orland, Florida, USA
Distance from station: NW 19mi, 31km
Updated: 06/24/2018 9:50pm
NOT Current
Mostly cloudy
Mostly cloudy
 Wind from W
Wind: W 3 mph , 6 km/h
Temperature: 77°F , 25°C
Dew Point: 73°F , 23°C
Humidity: 89%
Barometer: 30.11 inHg , 1019.6 hPa
Clouds: Mostly cloudy
Visibility: 10 miles , 16 km
Cloud details: Mostly cloudy 12000 ft
2018/06/25 01:50 KISM 250150Z 27003KT 10SM BKN120 25/23 A3011
KMCO - Orlando, Florida, USA
Distance from station: NNW 23mi, 37km
Updated: 06/25/2018 6:53am
Few Clouds
Few Clouds
 Wind from E
Wind: E 3 mph , 6 km/h
Temperature: 75°F , 24°C
Dew Point: 75°F , 24°C
Humidity: 100%
Barometer: 30.09 inHg , 1019 hPa
Clouds: Few Clouds
Visibility: 10 miles , 16 km
Cloud details: Few Clouds 2500 ft
Few Clouds 25000 ft
2018/06/25 10:53 KMCO 251053Z 08003KT 10SM FEW025 FEW250 24/24 A3009 RMK AO2 SLP189 T02390239 $
 
KORL - Orlando, Florida, USA
Distance from station: NNW 32mi, 51km
Updated: 06/25/2018 6:53am
Clear
Clear
 Wind from calm
Wind: Calm
Temperature: 77°F , 25°C
Dew Point: 75°F , 24°C
Humidity: 94%
Barometer: 30.10 inHg , 1019.3 hPa
Clouds: Clear
Visibility: 9 miles , 14 km
2018/06/25 10:53 KORL 251053Z AUTO 00000KT 9SM CLR 25/24 A3010 RMK AO2 SLP195 T02500239
KMLB - Melbourne, Florida, USA
Distance from station: E 32mi, 52km
Updated: 06/25/2018 6:53am
Clear
Clear
 Wind from calm
Wind: Calm
Temperature: 79°F , 26°C
Dew Point: 73°F , 23°C
Humidity: 84%
Barometer: 30.09 inHg , 1019 hPa
Clouds: Clear
Visibility: 9 miles , 14 km
2018/06/25 10:53 KMLB 251053Z 00000KT 9SM CLR 26/23 A3009 RMK AO2 SLP187 T02610228 $
 
KGIF - Winter Haven, Florida, USA
Distance from station: W 35mi, 56km
Updated: 06/25/2018 6:53am
Few Clouds
Few Clouds
 
Temperature: 75°F , 24°C
Dew Point: 73°F , 23°C
Humidity: 94%
Barometer: 30.10 inHg , 1019.3 hPa
Clouds: Few Clouds
Visibility: 10 miles , 16 km
Cloud details: Few Clouds 500 ft
2018/06/25 10:53 KGIF 251053Z AUTO 10SM FEW005 24/23 A3010 RMK AO2 SLP190 T02390233
KTIX - Titusville, Florida, USA
Distance from station: NE 35mi, 57km
Updated: 06/25/2018 7:47am
Clear
Clear
 Wind from calm
Wind: Calm
Barometer: 30.12 inHg , 1020 hPa
Clouds: Clear
Visibility: 7 miles , 11 km
2018/06/25 11:47 KTIX 251147Z 00000KT 7SM SKC A3012
 
KCOF - Patrick Afb/Coco, Florida, USA
Distance from station: ENE 36mi, 58km
Updated: 06/25/2018 6:56am
Clear
Clear
 Wind from calm
Wind: Calm
Temperature: 79°F , 26°C
Dew Point: 77°F , 25°C
Humidity: 94%
Barometer: 30.09 inHg , 1019 hPa
Clouds: Clear
Visibility: 10 miles , 16 km
2018/06/25 10:56 KCOF 251056Z AUTO 00000KT 10SM CLR 26/25 A3009 RMK AO2 SLP194 T02620248 $
KBOW - Bartow Municipal, Florida, USA
Distance from station: WSW 38mi, 61km
Updated: 06/25/2018 7:45am
Clear
Clear
 Wind from calm
Wind: Calm
Temperature: 75°F , 24°C
Dew Point: 75°F , 24°C
Humidity: 100%
Barometer: 30.10 inHg , 1019.3 hPa
Clouds: Clear
Visibility: 10 miles , 16 km
2018/06/25 11:45 KBOW 251145Z 00000KT 10SM SKC 24/24 A3010
 
KXMR - Cape Canaveral, Florida, USA
Distance from station: NE 44mi, 72km
Updated: 06/25/2018 6:56am
Mist, Few clouds
Mist, Few clouds
 Wind from calm
Wind: Calm
Temperature: 73°F , 23°C
Dew Point: 72°F , 22°C
Humidity: 94%
Barometer: 30.08 inHg , 1018.6 hPa
Summary: Mist
Clouds: Few Clouds
Visibility: 6 miles , 10 km
Cloud details: Few Clouds 2400 ft
2018/06/25 10:56 KXMR 251056Z AUTO 00000KT 6SM BR FEW024 23/22 A3008 RMK AO2 SLP189 T02320223 $
KTTS - Nasa Shuttle Fcl, Florida, USA
Distance from station: NE 45mi, 72km
Updated: 06/23/2018 3:07pm
NOT Current
Heavy thunderstorm, Rain, Fog, Overcast
Heavy thunderstorm, Rain, Fog, Overcast
 Wind from ESE
Wind: ESE 3 mph , 6 km/h, Gust: 20 mph , 31 km/h
Temperature: 81°F , 27°C
Heat Index: 91°F , 33°C
Dew Point: 81°F , 27°C
Humidity: 100%
Barometer: 29.99 inHg , 1015.6 hPa
Summary: Heavy thunderstorm, Rain, Fog
Clouds: Overcast
Visibility: 1/2 mile , 0.8 km
Cloud details: Mostly cloudy 1700 ft
Mostly cloudy 4300 ft
Mostly cloudy 5000 ft
Overcast 9000 ft
2018/06/23 19:07 KTTS 231907Z AUTO 11003G17KT 1/2SM R15/1600VP6000FT +TSRA FG BKN017 BKN043 BKN050 OVC090 27/27 A2999 RMK AO2 VIS 3/8V4 RAB1857 CIG 017V048 CIG 015 RWY15/33 PRESFR SLP160 $
 
KSFB - Sanford/Orlando, Florida, USA
Distance from station: N 45mi, 73km
Updated: 06/25/2018 6:53am
Clear
Clear
 Wind from calm
Wind: Calm
Temperature: 77°F , 25°C
Dew Point: 75°F , 24°C
Humidity: 94%
Barometer: 30.10 inHg , 1019.3 hPa
Clouds: Clear
Visibility: 7 miles , 11 km
2018/06/25 10:53 KSFB 251053Z 00000KT 7SM CLR 25/24 A3010 RMK AO2 SLP191 T02500244
KLAL - Lakeland Regiona, Florida, USA
Distance from station: WSW 52mi, 84km
Updated: 06/25/2018 6:50am
Clear
Clear
 Wind from NNE
Wind: NNE 5 mph , 7 km/h
Temperature: 73°F , 23°C
Dew Point: 73°F , 23°C
Humidity: 100%
Barometer: 30.09 inHg , 1019 hPa
Clouds: Clear
Visibility: 10 miles , 16 km
2018/06/25 10:50 KLAL 251050Z 03004KT 10SM SKC 23/23 A3009
 
KVRB - Vero Beach, Florida, USA
Distance from station: SE 57mi, 91km
Updated: 06/25/2018 6:53am
Clear
Clear
 Wind from WNW
Wind: WNW 3 mph , 6 km/h
Temperature: 72°F , 22°C
Dew Point: 72°F , 22°C
Humidity: 100%
Barometer: 30.08 inHg , 1018.6 hPa
Clouds: Clear
Visibility: 9 miles , 14 km
2018/06/25 10:53 KVRB 251053Z AUTO 30003KT 9SM CLR 22/22 A3008 RMK AO2 SLP186 T02220217
KZPH - Zephyrhills, Florida, USA
Distance from station: W 60mi, 96km
Updated: 06/25/2018 7:55am
Clear
Clear
 Wind from calm
Wind: Calm
Temperature: 73°F , 23°C
Dew Point: 73°F , 23°C
Humidity: 100%
Barometer: 30.11 inHg , 1019.6 hPa
Clouds: Clear
Visibility: 7 miles , 11 km
2018/06/25 11:55 KZPH 251155Z AUTO 00000KT 7SM CLR 23/23 A3011 RMK AO2 60001 70044 T02300230 10230 20221
 
KPCM - Plant City Muni, Florida, USA
Distance from station: W 61mi, 98km
Updated: 06/25/2018 7:35am
Clear
Clear
 Wind from calm
Wind: Calm
Temperature: 75°F , 24°C
Dew Point: 73°F , 23°C
Humidity: 94%
Barometer: 30.11 inHg , 1019.6 hPa
Clouds: Clear
Visibility: 7 miles , 11 km
2018/06/25 11:35 KPCM 251135Z AUTO 00000KT 7SM CLR 24/23 A3011 RMK AO2
KLEE - Leesburg, Florida, USA
Distance from station: NW 62mi, 100km
Updated: 06/25/2018 6:53am
Clear
Clear
 Wind from NNE
Wind: NNE 5 mph , 7 km/h
Temperature: 75°F , 24°C
Dew Point: 75°F , 24°C
Humidity: 100%
Barometer: 30.10 inHg , 1019.3 hPa
Clouds: Clear
Visibility: 8 miles , 13 km
2018/06/25 10:53 KLEE 251053Z 03004KT 8SM CLR 24/24 A3010 RMK AO2 SLP192 T02390239
 
KOBE - Okeechobee Cty, Florida, USA
Distance from station: SSE 62mi, 100km
Updated: 06/25/2018 7:35am
Clear
Clear
 Wind from E
Wind: E 3 mph , 6 km/h
Temperature: 73°F , 23°C
Dew Point: 72°F , 22°C
Humidity: 94%
Barometer: 30.08 inHg , 1018.6 hPa
Clouds: Clear
Visibility: 7 miles , 11 km
2018/06/25 11:35 KOBE 251135Z AUTO 08003KT 7SM CLR 23/22 A3008 RMK AO2
KFPR - Fort Pierce, Florida, USA
Distance from station: SE 65mi, 104km
Updated: 06/25/2018 6:53am
Clear
Clear
 Wind from calm
Wind: Calm
Temperature: 73°F , 23°C
Dew Point: 73°F , 23°C
Humidity: 100%
Barometer: 30.07 inHg , 1018.3 hPa
Clouds: Clear
Visibility: 9 miles , 14 km
2018/06/25 10:53 KFPR 251053Z AUTO 00000KT 9SM CLR 23/23 A3007 RMK AO2 SLP183 T02280228
 
KDED - Deland, Florida, USA
Distance from station: N 66mi, 106km
Updated: 06/25/2018 7:35am
Clear
Clear
 Wind from NNE
Wind: NNE 3 mph , 6 km/h
Temperature: 77°F , 25°C
Dew Point: 75°F , 24°C
Humidity: 94%
Barometer: 30.11 inHg , 1019.6 hPa
Clouds: Clear
Visibility: 7 miles , 11 km
2018/06/25 11:35 KDED 251135Z AUTO 02003KT 7SM CLR 25/24 A3011 RMK AO2
KEVB - New Smyrna Beach, Florida, USA
Distance from station: NNE 66mi, 106km
Updated: 06/25/2018 6:47am
Clear
Clear
 Wind from calm
Wind: Calm
Temperature: 77°F , 25°C
Dew Point: 75°F , 24°C
Humidity: 94%
Barometer: 30.10 inHg , 1019.3 hPa
Clouds: Clear
Visibility: 10 miles , 16 km
2018/06/25 10:47 KEVB 251047Z 00000KT 10SM SKC 25/24 A3010 RMK FIRST